Time;durP1;ratioP1;P1;durP2;ratioP2;P2;SDS_P1;SDS_P2;PMS_P1;PMS_P2;Temp;Humidity;BMP_temperature;BMP_pressure;BME280_temperature;BME280_humidity;BME280_pressure;Samples;Min_cycle;Max_cycle;Signal;HPM_P1;HPM_P2
2022/08/18 00:04:55;;;;;;;1.10;1.00;;;;;;;22.84;53.05;96420.78;10323455;28;20066;-29
2022/08/18 00:09:57;;;;;;;1.77;1.67;;;;;;;22.74;53.09;96426.97;10323169;28;20030;-30
2022/08/18 00:15:02;;;;;;;1.17;1.17;;;;;;;22.69;53.11;96428.75;10323649;28;20481;-29
2022/08/18 00:20:09;;;;;;;1.45;1.35;;;;;;;22.65;52.86;96417.78;10318929;28;20034;-28
2022/08/18 00:25:11;;;;;;;;;;;;;;;22.64;53.02;96413.56;10322834;28;20042;-29
2022/08/18 00:30:15;;;;;;;1.63;1.13;;;;;;;22.63;53.14;96393.16;10320579;28;19914;-29
2022/08/18 00:35:25;;;;;;;1.42;1.33;;;;;;;22.61;53.37;96393.22;10323260;28;20497;-29
2022/08/18 00:40:35;;;;;;;1.45;1.35;;;;;;;22.77;53.47;96391.16;10322745;28;20124;-29
2022/08/18 00:45:39;;;;;;;1.33;1.23;;;;;;;22.95;53.04;96385.63;10318692;28;20066;-29
2022/08/18 00:50:47;;;;;;;1.45;1.27;;;;;;;22.80;52.91;96384.28;10326104;28;20448;-29
2022/08/18 00:55:48;;;;;;;1.95;1.80;;;;;;;22.74;52.96;96391.22;10325247;28;20073;-29
2022/08/18 01:00:50;;;;;;;3.10;2.25;;;;;;;22.70;53.02;96379.41;10329640;28;20056;-29
2022/08/18 01:05:58;;;;;;;1.83;1.60;;;;;;;22.66;53.02;96370.97;10330259;28;20057;-29
2022/08/18 01:11:01;;;;;;;2.72;1.95;;;;;;;22.66;52.89;96373.50;10329863;28;20034;-29
2022/08/18 01:21:49;;;;;;;2.35;2.15;;;;;;;22.63;53.11;96378.69;10327254;28;20062;-29
2022/08/18 01:26:48;;;;;;;1.48;1.38;;;;;;;22.82;53.34;96376.59;10327551;28;20097;-29
2022/08/18 01:31:55;;;;;;;1.25;1.15;;;;;;;22.93;52.87;96366.97;10327206;28;20026;-30
2022/08/18 01:36:56;;;;;;;1.52;1.42;;;;;;;22.77;52.92;96361.38;10328147;28;20035;-30
2022/08/18 01:41:56;;;;;;;2.13;2.00;;;;;;;22.72;53.11;96358.06;10328508;28;20030;-29
2022/08/18 01:46:57;;;;;;;1.80;1.70;;;;;;;22.69;53.13;96363.25;10327764;28;20489;-30
2022/08/18 01:51:57;;;;;;;2.80;2.60;;;;;;;22.65;52.94;96355.72;10327464;28;20377;-29
2022/08/18 01:56:58;;;;;;;1.20;1.10;;;;;;;22.61;53.12;96349.84;10328137;28;20037;-28
2022/08/18 02:02:00;;;;;;;0.93;0.90;;;;;;;22.56;53.10;96343.16;10319950;28;20061;-29
2022/08/18 02:07:02;;;;;;;1.33;1.23;;;;;;;22.62;53.16;96351.50;10327189;28;20034;-30
2022/08/18 02:12:04;;;;;;;1.30;1.20;;;;;;;22.81;53.36;96337.44;10327556;28;20038;-29
2022/08/18 02:17:08;;;;;;;1.40;1.30;;;;;;;22.90;52.78;96339.78;10323846;28;20045;-28
2022/08/18 02:22:14;;;;;;;1.20;1.10;;;;;;;22.74;53.08;96341.00;10326316;28;20035;-29
2022/08/18 02:27:16;;;;;;;1.33;1.23;;;;;;;22.69;53.03;96340.28;10326878;28;20042;-30
2022/08/18 02:32:16;;;;;;;1.48;1.30;;;;;;;22.66;53.08;96332.69;10324603;28;20547;-29
2022/08/18 02:37:16;;;;;;;1.63;1.53;;;;;;;22.64;52.92;96334.44;10325631;28;20037;-30
2022/08/18 02:42:17;;;;;;;1.10;1.00;;;;;;;22.56;53.16;96313.34;10326462;28;20046;-28
2022/08/18 02:47:19;;;;;;;1.23;1.13;;;;;;;22.60;53.27;96311.56;10325403;28;20038;-29
2022/08/18 02:52:19;;;;;;;1.52;1.42;;;;;;;22.62;53.26;96299.63;10324842;28;20425;-30
2022/08/18 02:57:21;;;;;;;1.30;1.20;;;;;;;22.83;53.23;96299.13;10326205;28;20045;-29
2022/08/18 03:02:21;;;;;;;1.40;1.30;;;;;;;22.87;52.91;96311.78;10323547;28;20416;-30
2022/08/18 03:07:22;;;;;;;1.40;1.30;;;;;;;22.74;52.91;96289.16;10324162;28;20032;-29
2022/08/18 03:12:24;;;;;;;1.45;1.35;;;;;;;22.69;52.99;96296.06;10324967;28;20042;-29
2022/08/18 03:17:24;;;;;;;2.00;1.90;;;;;;;22.65;53.60;96279.97;10322400;28;21380;-29
2022/08/18 03:22:24;;;;;;;0.90;0.90;;;;;;;22.63;53.14;96273.22;10324015;28;20036;-31
2022/08/18 03:27:25;;;;;;;1.20;1.10;;;;;;;22.62;53.28;96277.50;10324876;28;20034;-30
2022/08/18 03:32:25;;;;;;;1.30;1.20;;;;;;;22.59;53.13;96282.69;10324421;28;20445;-29
2022/08/18 03:37:26;;;;;;;1.80;1.70;;;;;;;22.62;53.68;96267.28;10323532;28;20046;-29
2022/08/18 03:42:26;;;;;;;1.60;1.50;;;;;;;22.83;53.16;96274.44;10324340;28;20042;-29
2022/08/18 03:47:26;;;;;;;1.30;1.20;;;;;;;22.87;52.88;96290.50;10323362;28;20342;-30
2022/08/18 03:52:27;;;;;;;1.43;1.33;;;;;;;22.69;52.96;96278.19;10323045;28;20520;-29
2022/08/18 03:57:28;;;;;;;1.50;1.40;;;;;;;22.66;53.06;96294.41;10324283;28;20297;-29
2022/08/18 04:02:28;;;;;;;2.17;1.98;;;;;;;22.64;52.85;96290.22;10322268;28;20508;-29
2022/08/18 04:07:29;;;;;;;0.90;0.90;;;;;;;22.63;53.22;96281.72;10324173;28;20034;-28
2022/08/18 04:12:30;;;;;;;1.25;1.15;;;;;;;22.61;53.21;96286.03;10325643;28;20121;-29
2022/08/18 04:17:31;;;;;;;1.00;1.00;;;;;;;22.61;53.11;96308.16;10322986;28;20043;-30
2022/08/18 04:22:35;;;;;;;1.40;1.30;;;;;;;22.61;53.53;96309.00;10323171;28;20050;-28
2022/08/18 04:27:38;;;;;;;1.67;1.58;;;;;;;22.81;53.15;96319.59;10329822;28;20527;-29
2022/08/18 04:32:38;;;;;;;1.00;1.00;;;;;;;22.85;52.81;96313.53;10325248;28;20042;-29
2022/08/18 04:37:38;;;;;;;1.40;1.27;;;;;;;22.71;53.11;96310.47;10330136;28;20034;-29
2022/08/18 04:42:39;;;;;;;1.30;1.20;;;;;;;22.65;53.09;96319.97;10330633;28;20042;-29
2022/08/18 04:47:40;;;;;;;1.40;1.30;;;;;;;22.62;53.22;96325.13;10330312;28;20030;-29
2022/08/18 04:58:01;;;;;;;0.90;0.90;;;;;;;22.57;52.82;96322.69;10326388;28;20113;-29
2022/08/18 05:03:01;;;;;;;2.70;1.00;;;;;;;22.57;53.21;96324.41;10323441;28;20042;-29
2022/08/18 05:08:01;;;;;;;1.40;1.30;;;;;;;22.62;53.82;96320.03;10329394;28;20030;-29
2022/08/18 05:13:03;;;;;;;1.42;1.33;;;;;;;22.82;53.44;96316.16;10329579;28;20431;-29
2022/08/18 05:18:04;;;;;;;1.00;1.00;;;;;;;22.82;52.86;96310.22;10328809;28;20030;-31
2022/08/18 05:23:05;;;;;;;1.30;1.20;;;;;;;22.69;53.19;96296.91;10329079;28;20034;-29
2022/08/18 05:28:05;;;;;;;1.30;1.20;;;;;;;22.64;53.14;96277.47;10329473;28;20042;-28
2022/08/18 05:33:09;;;;;;;1.33;1.23;;;;;;;22.58;53.32;96288.63;10325113;28;20686;-29
2022/08/18 05:38:35;;;;;;;1.35;0.70;;;;;;;22.60;53.30;96327.75;10328354;28;20505;-29
2022/08/18 05:43:37;;;;;;;1.10;1.00;;;;;;;22.60;53.30;96340.50;10328538;28;20046;-29
2022/08/18 05:48:37;;;;;;;1.42;1.33;;;;;;;22.60;53.40;96343.06;10326780;28;20042;-29
2022/08/18 05:59:00;;;;;;;2.17;1.50;;;;;;;22.87;53.35;96322.00;10328502;28;20360;-29
2022/08/18 06:04:28;;;;;;;1.40;1.30;;;;;;;22.75;53.06;96312.06;10325478;28;20529;-29
2022/08/18 06:09:37;;;;;;;1.65;1.55;;;;;;;22.69;53.20;96347.94;10326956;28;20061;-29
2022/08/18 06:14:40;;;;;;;1.63;1.52;;;;;;;22.64;53.20;96359.97;10322770;28;20077;-29
2022/08/18 06:19:58;;;;;;;0.95;0.95;;;;;;;22.62;53.24;96361.72;10325025;28;20030;-28
2022/08/18 06:25:18;;;;;;;1.45;1.35;;;;;;;22.62;53.30;96366.81;10324606;28;20709;-29
2022/08/18 06:30:24;;;;;;;1.73;1.33;;;;;;;22.61;53.37;96374.50;10325346;28;20038;-30
2022/08/18 06:35:40;;;;;;;1.48;1.38;;;;;;;22.59;53.34;96366.91;10326743;28;20038;-40
2022/08/18 06:40:41;;;;;;;1.40;1.30;;;;;;;22.76;53.26;96375.03;10322944;28;20413;-30
2022/08/18 06:45:49;;;;;;;1.20;1.10;;;;;;;22.85;52.86;96374.81;10323304;28;20035;-29
2022/08/18 06:50:56;;;;;;;1.23;1.13;;;;;;;22.73;53.09;96369.97;10327476;28;20365;-29
2022/08/18 06:55:57;;;;;;;1.58;1.48;;;;;;;22.67;53.20;96352.25;10327188;28;20030;-28
2022/08/18 07:01:00;;;;;;;1.30;1.20;;;;;;;22.63;53.19;96355.72;10327864;28;20667;-29
2022/08/18 07:06:19;;;;;;;1.13;1.13;;;;;;;22.60;53.16;96352.41;10321620;28;20034;-29
2022/08/18 07:11:19;;;;;;;1.27;1.17;;;;;;;22.59;53.40;96361.78;10324458;28;20042;-29
2022/08/18 07:16:32;;;;;;;1.30;1.20;;;;;;;22.53;53.22;96333.84;10322012;28;20038;-30
2022/08/18 07:21:36;;;;;;;1.13;1.02;;;;;;;22.58;53.42;96342.22;10324217;28;20034;-29
2022/08/18 07:27:06;;;;;;;1.08;1.08;;;;;;;22.79;53.45;96344.31;10321834;28;20037;-30
2022/08/18 07:32:18;;;;;;;1.58;1.48;;;;;;;22.81;53.04;96357.88;10319972;28;20401;-29
2022/08/18 07:37:42;;;;;;;1.23;1.13;;;;;;;22.70;53.12;96375.16;10323948;28;20097;-29
2022/08/18 07:42:51;;;;;;;1.60;1.50;;;;;;;22.63;53.18;96360.84;10323864;28;20046;-28
2022/08/18 07:48:02;;;;;;;1.48;1.38;;;;;;;22.62;53.20;96368.50;10322777;28;20648;-29
2022/08/18 07:53:24;;;;;;;1.42;1.33;;;;;;;22.59;53.39;96374.53;10323114;28;20034;-29
2022/08/18 07:58:43;;;;;;;1.00;1.00;;;;;;;22.58;53.27;96354.97;10325396;28;20416;-29
2022/08/18 08:03:51;;;;;;;1.10;1.05;;;;;;;22.56;53.41;96366.94;10327112;28;20030;-30
2022/08/18 08:08:54;;;;;;;1.48;1.38;;;;;;;22.70;53.53;96398.13;10325948;28;20039;-27
2022/08/18 08:14:06;;;;;;;1.63;1.52;;;;;;;22.85;53.35;96362.03;10331705;28;20164;-30
2022/08/18 08:19:24;;;;;;;1.60;1.10;;;;;;;22.75;53.13;96347.78;10324403;28;20112;-29
2022/08/18 08:24:35;;;;;;;1.33;1.23;;;;;;;22.65;53.09;96341.22;10327558;28;20584;-29
2022/08/18 08:29:52;;;;;;;1.75;1.65;;;;;;;22.62;53.22;96333.66;10329988;28;20081;-29
2022/08/18 08:35:04;;;;;;;1.55;1.45;;;;;;;22.60;53.10;96311.56;10328788;28;20056;-29
2022/08/18 08:40:21;;;;;;;1.27;1.17;;;;;;;22.58;53.33;96336.28;10326570;28;20100;-29
2022/08/18 08:45:27;;;;;;;0.90;0.90;;;;;;;22.56;53.30;96325.28;10328922;28;20025;-29
2022/08/18 08:50:33;;;;;;;0.90;0.90;;;;;;;22.49;53.32;96293.13;10330643;28;20066;-29
2022/08/18 08:55:40;;;;;;;1.17;1.10;;;;;;;22.74;53.34;96297.63;10323945;28;20045;-29
2022/08/18 09:00:41;;;;;;;0.95;0.95;;;;;;;22.86;52.92;96324.56;10325094;28;20034;-29
2022/08/18 09:05:59;;;;;;;1.52;1.42;;;;;;;22.65;53.02;96318.25;10330405;28;20026;-29
2022/08/18 09:11:17;;;;;;;1.48;1.38;;;;;;;22.67;53.28;96352.25;10321251;28;20042;-29
2022/08/18 09:16:33;;;;;;;1.38;1.27;;;;;;;22.61;53.21;96362.59;10325855;28;20034;-29
2022/08/18 09:22:02;;;;;;;1.58;1.20;;;;;;;22.59;53.27;96372.00;10326926;28;20085;-30
2022/08/18 09:27:03;;;;;;;1.10;1.02;;;;;;;22.56;53.26;96361.84;10325089;28;20428;-29
2022/08/18 09:32:42;;;;;;;1.13;1.10;;;;;;;22.56;53.33;96346.53;10326458;28;20037;-29
2022/08/18 09:37:46;;;;;;;0.93;0.90;;;;;;;22.62;53.78;96335.34;10305150;28;20529;-29
2022/08/18 09:43:05;;;;;;;1.65;1.55;;;;;;;22.82;53.51;96336.56;10328516;28;20066;-29
2022/08/18 09:48:05;;;;;;;0.98;0.98;;;;;;;22.77;53.08;96310.34;10326878;28;20049;-28
2022/08/18 09:53:35;;;;;;;0.90;0.90;;;;;;;22.66;53.14;96293.59;10327612;28;20053;-29
2022/08/18 09:58:52;;;;;;;1.30;1.20;;;;;;;22.62;53.22;96286.84;10325283;28;20066;-29
2022/08/18 10:04:14;;;;;;;1.52;1.42;;;;;;;22.62;53.32;96280.06;10320302;28;20173;-29
2022/08/18 10:09:23;;;;;;;1.40;1.30;;;;;;;22.59;53.35;96269.94;10327605;28;20225;-29
2022/08/18 10:14:29;;;;;;;1.33;1.23;;;;;;;22.58;53.35;96260.56;10326341;28;20040;-29
2022/08/18 10:19:41;;;;;;;1.10;1.08;;;;;;;22.59;53.32;96275.03;10323822;28;20608;-29
2022/08/18 10:24:54;;;;;;;1.10;1.08;;;;;;;22.75;53.41;96255.09;10323748;28;20042;-29
2022/08/18 10:29:56;;;;;;;1.10;1.00;;;;;;;22.89;53.25;96273.47;10325173;28;20117;-29
2022/08/18 10:34:56;;;;;;;0.90;0.90;;;;;;;22.73;53.18;96288.28;10320024;28;20101;-29
2022/08/18 10:40:06;;;;;;;1.30;1.20;;;;;;;22.67;53.29;96278.25;10326451;28;20089;-29
2022/08/18 10:45:18;;;;;;;1.67;1.50;;;;;;;22.64;53.25;96283.41;10324947;28;20491;-29
2022/08/18 10:50:25;;;;;;;1.63;1.52;;;;;;;22.63;53.16;96271.53;10324262;28;20034;-30
2022/08/18 10:55:25;;;;;;;;;;;;;;;22.63;53.39;96268.13;10320011;28;20240;-30
2022/08/18 11:00:50;;;;;;;1.73;1.63;;;;;;;22.62;53.46;96240.94;10323629;28;19921;-29
2022/08/18 11:06:01;;;;;;;1.58;1.48;;;;;;;22.59;53.35;96229.09;10324780;28;20038;-29
2022/08/18 11:11:08;;;;;;;1.27;1.17;;;;;;;22.79;53.29;96210.72;10324268;28;20026;-28
2022/08/18 11:16:15;;;;;;;1.40;1.30;;;;;;;22.86;52.82;96218.22;10323635;28;20492;-29
2022/08/18 11:21:38;;;;;;;1.30;1.20;;;;;;;22.74;53.13;96210.03;10325033;28;20038;-29
2022/08/18 11:26:47;;;;;;;1.40;1.30;;;;;;;22.67;53.23;96205.94;10322300;28;20046;-30
2022/08/18 11:31:50;;;;;;;1.70;1.60;;;;;;;22.62;53.26;96198.41;10320541;28;20616;-29
2022/08/18 11:36:59;;;;;;;1.08;1.00;;;;;;;22.62;53.18;96203.50;10323773;28;20165;-29
2022/08/18 11:42:00;;;;;;;1.30;1.20;;;;;;;22.61;53.31;96198.44;10315688;28;20034;-30
2022/08/18 11:47:17;;;;;;;1.50;1.40;;;;;;;22.62;53.30;96207.75;10324192;28;20397;-29
2022/08/18 11:52:23;;;;;;;1.70;1.60;;;;;;;22.64;53.83;96226.44;10318217;28;20378;-29
2022/08/18 11:57:28;;;;;;;1.70;1.60;;;;;;;22.83;53.29;96228.47;10323310;28;20039;-29
2022/08/18 12:02:29;;;;;;;1.27;1.17;;;;;;;22.82;53.33;96231.91;10321803;28;20444;-29
2022/08/18 12:07:34;;;;;;;1.40;1.30;;;;;;;22.70;53.17;96222.03;10320118;28;20038;-29
2022/08/18 12:12:47;;;;;;;1.55;1.45;;;;;;;22.65;53.10;96218.72;10316028;28;20042;-30
2022/08/18 12:17:48;;;;;;;1.85;1.70;;;;;;;22.64;53.20;96219.59;10323312;28;20038;-29
2022/08/18 12:22:48;;;;;;;1.43;1.33;;;;;;;22.62;53.18;96221.38;10322926;28;20044;-31
2022/08/18 12:27:49;;;;;;;1.90;1.80;;;;;;;22.58;53.28;96224.03;10323600;28;20299;-29
2022/08/18 12:32:49;;;;;;;1.50;1.40;;;;;;;22.60;53.33;96229.91;10321953;28;20497;-29
2022/08/18 12:37:50;;;;;;;1.73;1.63;;;;;;;22.63;53.94;96225.59;10323248;28;20038;-29
2022/08/18 12:42:50;;;;;;;1.20;1.10;;;;;;;22.82;53.36;96211.50;10322917;28;20044;-29
2022/08/18 12:47:50;;;;;;;1.33;1.23;;;;;;;22.80;53.13;96212.41;10326539;28;20034;-30
2022/08/18 12:52:51;;;;;;;1.13;1.10;;;;;;;22.70;53.12;96209.25;10322824;28;20045;-29
2022/08/18 12:57:51;;;;;;;1.13;1.03;;;;;;;22.63;53.00;96194.13;10330399;28;20060;-29
2022/08/18 13:02:51;;;;;;;1.67;1.57;;;;;;;22.61;53.34;96189.06;10326682;28;20557;-29
2022/08/18 13:07:52;;;;;;;1.40;1.30;;;;;;;22.59;53.38;96178.06;10326045;28;20113;-29
2022/08/18 13:12:52;;;;;;;1.43;1.03;;;;;;;22.58;53.25;96176.38;10330050;28;20043;-29
2022/08/18 13:17:53;;;;;;;1.60;1.50;;;;;;;22.58;53.35;96176.38;10328718;28;21071;-29
2022/08/18 13:22:54;;;;;;;1.67;1.58;;;;;;;22.63;53.97;96169.44;10328587;28;20049;-29
2022/08/18 13:27:55;;;;;;;1.55;1.45;;;;;;;22.83;53.47;96177.44;10329430;28;20033;-29
2022/08/18 13:32:55;;;;;;;1.38;1.27;;;;;;;22.79;53.21;96175.84;10324358;28;20048;-29
2022/08/18 13:37:55;;;;;;;1.10;1.10;;;;;;;22.69;53.21;96189.72;10325636;28;20039;-29
2022/08/18 13:42:56;;;;;;;1.47;1.37;;;;;;;22.63;53.37;96184.75;10328861;28;20646;-30
2022/08/18 13:47:57;;;;;;;1.35;1.25;;;;;;;22.62;53.46;96193.28;10327673;28;20374;-29
2022/08/18 13:53:00;;;;;;;2.15;1.45;;;;;;;22.61;53.38;96196.72;10320799;28;20037;-29
2022/08/18 13:58:01;;;;;;;1.70;1.60;;;;;;;22.60;53.42;96207.81;10328731;28;20027;-28
2022/08/18 14:03:01;;;;;;;1.63;1.33;;;;;;;22.60;53.48;96209.50;10321640;28;20100;-30
2022/08/18 14:08:03;;;;;;;1.50;1.40;;;;;;;22.65;53.83;96216.19;10326878;28;20105;-30
2022/08/18 14:13:05;;;;;;;1.38;1.27;;;;;;;22.84;53.59;96217.41;10330149;28;20030;-29
2022/08/18 14:18:06;;;;;;;1.85;1.75;;;;;;;22.89;53.27;96212.19;10325972;28;20069;-30
2022/08/18 14:28:27;;;;;;;1.90;1.80;;;;;;;22.91;54.05;96221.47;10328829;28;20038;-30
2022/08/18 14:33:29;;;;;;;1.80;1.70;;;;;;;22.89;54.05;96223.22;10326296;28;20073;-29
2022/08/18 14:38:31;;;;;;;2.10;1.83;;;;;;;22.92;53.63;96228.25;10327074;28;20038;-28
2022/08/18 14:43:34;;;;;;;2.20;2.00;;;;;;;22.92;54.18;96227.44;10326492;28;20038;-29
2022/08/18 14:48:35;;;;;;;2.15;2.05;;;;;;;22.90;54.29;96219.78;10320744;28;20129;-29
2022/08/18 14:53:36;;;;;;;1.80;1.70;;;;;;;22.96;53.44;96229.00;10318048;28;20699;-29
2022/08/18 14:58:39;;;;;;;1.70;1.60;;;;;;;23.04;53.34;96229.66;10326355;28;20042;-28
2022/08/18 15:03:40;;;;;;;3.63;2.47;;;;;;;23.02;56.01;96234.81;10319634;28;20038;-30
2022/08/18 15:08:40;;;;;;;2.63;2.43;;;;;;;22.97;54.87;96231.53;10322742;28;20034;-29
2022/08/18 15:13:42;;;;;;;2.28;2.08;;;;;;;22.95;54.52;96238.41;10325491;28;20042;-29
2022/08/18 15:18:44;;;;;;;2.40;2.20;;;;;;;22.96;54.46;96242.63;10318592;28;20026;-29
2022/08/18 15:29:06;;;;;;;2.20;2.00;;;;;;;22.89;54.49;96242.84;10321340;28;20032;-29
2022/08/18 15:34:06;;;;;;;2.10;2.00;;;;;;;22.93;54.52;96250.38;10322050;28;20038;-30
2022/08/18 15:39:07;;;;;;;2.00;1.83;;;;;;;22.92;53.51;96243.56;10323698;28;20040;-29
2022/08/18 15:44:08;;;;;;;1.83;1.70;;;;;;;23.04;53.35;96250.94;10324624;28;20045;-29
2022/08/18 15:49:09;;;;;;;1.38;1.27;;;;;;;22.85;53.43;96247.19;10324193;28;20040;-29
2022/08/18 15:54:11;;;;;;;1.75;1.65;;;;;;;22.69;53.36;96242.47;10318122;28;20069;-29
2022/08/18 15:59:11;;;;;;;1.85;1.75;;;;;;;22.67;53.29;96252.72;10324608;28;20513;-31
2022/08/18 16:04:14;;;;;;;1.60;1.50;;;;;;;22.64;53.50;96242.56;10319947;28;20026;-29
2022/08/18 16:09:15;;;;;;;1.58;1.48;;;;;;;22.63;53.39;96250.25;10322247;28;20049;-29
2022/08/18 16:14:16;;;;;;;1.75;1.65;;;;;;;22.62;53.40;96244.31;10322054;28;20034;-29
2022/08/18 16:19:16;;;;;;;1.83;1.70;;;;;;;22.60;53.63;96235.03;10322016;28;20120;-30
2022/08/18 16:24:16;;;;;;;1.53;1.43;;;;;;;22.74;54.12;96241.47;10328016;28;20502;-28
2022/08/18 16:29:18;;;;;;;1.50;1.40;;;;;;;22.89;53.33;96236.00;10332215;28;20052;-30
2022/08/18 16:34:18;;;;;;;1.15;1.05;;;;;;;22.76;53.23;96242.28;10330346;28;20943;-30
2022/08/18 16:39:18;;;;;;;1.50;1.40;;;;;;;22.66;53.46;96233.16;10331020;28;20126;-29
2022/08/18 16:44:19;;;;;;;1.33;1.23;;;;;;;22.63;53.44;96240.91;10329922;28;20030;-29
2022/08/18 16:49:19;;;;;;;1.60;1.50;;;;;;;22.61;53.47;96245.22;10331298;28;20105;-29
2022/08/18 16:54:20;;;;;;;1.13;1.03;;;;;;;22.60;53.55;96245.22;10324256;28;20042;-29
2022/08/18 17:04:39;;;;;;;1.65;1.55;;;;;;;22.56;53.60;96236.81;10329238;28;20038;-29
2022/08/18 17:09:40;;;;;;;1.40;1.30;;;;;;;22.74;53.78;96238.91;10327247;28;20038;-29
2022/08/18 17:14:40;;;;;;;1.50;1.40;;;;;;;22.85;53.29;96239.50;10330305;28;20084;-29
2022/08/18 17:19:40;;;;;;;1.53;1.43;;;;;;;22.72;53.38;96240.69;10323990;28;20046;-28
2022/08/18 17:24:41;;;;;;;1.30;1.20;;;;;;;22.64;53.38;96227.25;10326856;28;20041;-29
2022/08/18 17:29:57;;;;;;;2.13;1.58;;;;;;;22.60;53.55;96220.56;10325568;28;20058;-29
2022/08/18 17:35:03;;;;;;;1.10;1.00;;;;;;;22.58;53.61;96232.50;10328095;28;20604;-29
2022/08/18 17:40:12;;;;;;;1.27;1.17;;;;;;;22.55;53.49;96227.47;10324156;28;20109;-29
2022/08/18 17:45:14;;;;;;;1.10;1.05;;;;;;;22.56;53.52;96230.88;10327497;28;20026;-28
2022/08/18 17:55:58;;;;;;;1.60;1.50;;;;;;;22.77;53.83;96243.97;10322038;28;20408;-28
2022/08/18 18:01:02;;;;;;;1.48;1.38;;;;;;;22.80;53.46;96249.00;10323189;28;20045;-29
2022/08/18 18:06:12;;;;;;;2.47;1.42;;;;;;;22.68;53.42;96244.19;10328302;28;20038;-29
2022/08/18 18:11:13;;;;;;;1.38;1.27;;;;;;;22.59;53.51;96239.31;10325016;28;20092;-29
2022/08/18 18:16:33;;;;;;;1.80;1.70;;;;;;;22.60;53.55;96245.22;10326412;28;20030;-29
2022/08/18 18:21:35;;;;;;;1.70;1.60;;;;;;;22.58;53.55;96252.91;10325803;28;20046;-29
2022/08/18 18:26:41;;;;;;;1.60;1.50;;;;;;;22.58;53.59;96257.19;10327594;28;20026;-29
2022/08/18 18:31:50;;;;;;;1.70;1.60;;;;;;;22.55;53.57;96258.09;10326431;28;20045;-30
2022/08/18 18:36:52;;;;;;;1.65;1.55;;;;;;;22.62;54.22;96254.53;10320749;28;20038;-29
2022/08/18 18:42:06;;;;;;;1.48;1.38;;;;;;;22.77;53.90;96254.19;10326765;28;20042;-29
2022/08/18 18:47:46;;;;;;;1.52;1.42;;;;;;;22.76;53.60;96265.28;10320498;28;20049;-27
2022/08/18 18:52:56;;;;;;;1.40;1.30;;;;;;;22.66;53.53;96266.34;10317742;28;20046;-30
2022/08/18 18:58:22;;;;;;;2.20;2.00;;;;;;;22.62;53.60;96264.75;10321448;28;20053;-30
2022/08/18 19:03:31;;;;;;;1.75;1.65;;;;;;;22.63;53.55;96265.56;10324413;28;20038;-30
2022/08/18 19:09:00;;;;;;;1.60;1.50;;;;;;;22.54;53.45;96260.69;10322810;28;20035;-31
2022/08/18 19:14:08;;;;;;;2.22;2.03;;;;;;;22.57;53.72;96271.66;10324936;28;20109;-29
2022/08/18 19:19:20;;;;;;;1.45;1.35;;;;;;;22.56;53.70;96269.97;10323004;28;20069;-29
2022/08/18 19:24:21;;;;;;;1.67;1.58;;;;;;;22.75;53.71;96267.84;10321952;28;20097;-29
2022/08/18 19:29:27;;;;;;;1.30;1.20;;;;;;;22.84;53.43;96276.13;10325400;28;20116;-29
2022/08/18 19:34:32;;;;;;;1.30;1.20;;;;;;;22.70;53.42;96283.28;10323863;28;20781;-30
2022/08/18 19:39:46;;;;;;;1.75;1.65;;;;;;;22.57;53.57;96279.31;10324514;28;20041;-30
2022/08/18 19:45:04;;;;;;;1.80;1.70;;;;;;;22.60;53.72;96286.06;10323984;28;20038;-29
2022/08/18 19:50:29;;;;;;;2.08;1.65;;;;;;;22.57;53.57;96297.16;10323576;28;20041;-29
2022/08/18 19:55:48;;;;;;;2.25;1.30;;;;;;;22.56;53.67;96299.78;10317298;28;20038;-29
2022/08/18 20:01:03;;;;;;;1.35;1.25;;;;;;;22.57;53.71;96306.56;10317581;28;20038;-30
2022/08/18 20:06:25;;;;;;;1.70;1.60;;;;;;;22.65;54.05;96314.88;10319915;28;20081;-29
2022/08/18 20:11:25;;;;;;;1.70;1.60;;;;;;;22.82;53.75;96318.69;10320423;28;20042;-29
2022/08/18 20:16:31;;;;;;;1.30;1.20;;;;;;;22.75;53.51;96311.25;10322804;28;20189;-31
2022/08/18 20:21:46;;;;;;;1.57;1.47;;;;;;;22.65;53.53;96320.81;10323458;28;20501;-30
2022/08/18 20:26:48;;;;;;;1.58;1.48;;;;;;;22.64;53.54;96334.44;10322228;28;20089;-30
2022/08/18 20:31:48;;;;;;;1.80;1.70;;;;;;;22.61;53.56;96342.19;10317716;28;20030;-31
2022/08/18 20:36:50;;;;;;;1.47;1.37;;;;;;;22.57;53.65;96338.00;10322471;28;20401;-29
2022/08/18 20:41:51;;;;;;;1.50;1.40;;;;;;;22.55;53.57;96334.66;10323487;28;20772;-29
2022/08/18 20:47:28;;;;;;;1.25;1.15;;;;;;;22.54;53.67;96345.72;10322085;28;20026;-29
2022/08/18 20:52:46;;;;;;;1.33;1.23;;;;;;;22.70;53.98;96344.53;10310949;28;20073;-29
2022/08/18 20:57:46;;;;;;;1.35;1.20;;;;;;;22.79;53.36;96339.19;10323370;28;20049;-29
2022/08/18 21:02:53;;;;;;;1.30;1.20;;;;;;;22.69;53.49;96349.66;10321986;28;20049;-29
2022/08/18 21:07:59;;;;;;;1.50;1.40;;;;;;;22.62;53.56;96343.84;10322853;28;20034;-29
2022/08/18 21:13:03;;;;;;;1.63;1.52;;;;;;;22.55;53.69;96332.09;10329817;28;20746;-29
2022/08/18 21:18:21;;;;;;;1.00;1.00;;;;;;;22.57;53.55;96338.00;10328336;28;20588;-29
2022/08/18 21:23:32;;;;;;;1.90;1.80;;;;;;;22.57;53.81;96343.09;10323963;28;20480;-30
2022/08/18 21:28:36;;;;;;;1.80;1.70;;;;;;;22.55;53.72;96344.84;10329919;28;20408;-30
2022/08/18 21:33:36;;;;;;;1.80;1.70;;;;;;;22.60;53.92;96347.31;10316058;28;20031;-29
2022/08/18 21:38:37;;;;;;;1.60;1.50;;;;;;;22.76;53.80;96349.50;10328454;28;20116;-29
2022/08/18 21:43:46;;;;;;;1.20;1.10;;;;;;;22.81;53.40;96354.50;10328426;28;20038;-29
2022/08/18 21:48:49;;;;;;;1.52;1.42;;;;;;;22.67;53.47;96344.59;10323682;28;20119;-28
2022/08/18 21:53:51;;;;;;;1.55;1.45;;;;;;;22.64;53.63;96344.66;10321276;28;20030;-29
2022/08/18 21:59:05;;;;;;;1.90;1.80;;;;;;;22.63;53.76;96331.91;10328692;28;20047;-29
2022/08/18 22:04:24;;;;;;;1.90;1.80;;;;;;;22.60;53.67;96337.94;10324790;28;20034;-28
2022/08/18 22:14:47;;;;;;;1.83;1.73;;;;;;;22.59;53.90;96351.59;10324086;28;20164;-29
2022/08/18 22:19:48;;;;;;;2.25;2.05;;;;;;;22.65;54.37;96350.59;10325782;28;20042;-30
2022/08/18 22:24:54;;;;;;;1.77;1.67;;;;;;;22.82;53.94;96351.88;10324264;28;20030;-29
2022/08/18 22:30:03;;;;;;;1.35;1.25;;;;;;;22.78;53.70;96346.88;10327059;28;20034;-30
2022/08/18 22:35:06;;;;;;;2.22;2.03;;;;;;;22.72;53.82;96349.59;10321349;28;20490;-29
2022/08/18 22:40:11;;;;;;;2.28;2.08;;;;;;;22.66;53.73;96350.53;10322746;28;20042;-29
2022/08/18 22:45:12;;;;;;;1.85;1.75;;;;;;;22.63;53.59;96358.28;10324239;28;20385;-28
2022/08/18 22:50:13;;;;;;;1.95;1.80;;;;;;;22.62;53.76;96365.97;10323403;28;20038;-29
2022/08/18 22:55:17;;;;;;;1.80;1.70;;;;;;;22.52;53.71;96360.25;10319986;28;20030;-28
2022/08/18 23:00:20;;;;;;;1.80;1.17;;;;;;;22.52;53.76;96362.78;10326015;28;20111;-29
2022/08/18 23:05:21;;;;;;;1.70;1.60;;;;;;;22.62;54.03;96371.91;10325568;28;20033;-29
2022/08/18 23:10:21;;;;;;;2.00;1.83;;;;;;;22.79;53.90;96369.84;10322855;28;20061;-29
2022/08/18 23:15:38;;;;;;;1.50;1.30;;;;;;;22.71;53.63;96375.97;10322195;28;20415;-30
2022/08/18 23:20:39;;;;;;;1.83;1.73;;;;;;;22.63;53.55;96367.63;10317561;28;20393;-30
2022/08/18 23:25:39;;;;;;;1.57;1.47;;;;;;;22.58;53.66;96370.28;10324860;28;20026;-29
2022/08/18 23:30:39;;;;;;;1.00;1.00;;;;;;;22.54;53.66;96358.50;10324236;28;20789;-29
2022/08/18 23:35:42;;;;;;;1.53;1.10;;;;;;;22.53;53.78;96355.97;10323846;28;20039;-29
2022/08/18 23:40:45;;;;;;;1.00;1.00;;;;;;;22.51;53.83;96345.81;10323744;28;20308;-30
2022/08/18 23:45:48;;;;;;;2.50;1.50;;;;;;;22.52;53.73;96344.94;10324475;28;20039;-29
2022/08/18 23:50:49;;;;;;;1.40;1.30;;;;;;;22.65;54.04;96345.50;10322984;28;20041;-30
2022/08/18 23:55:49;;;;;;;1.75;1.65;;;;;;;22.80;53.91;96342.56;10316647;28;20507;-29
